sensor_id;sensor_type;location;lat;lon;timestamp;temperature;humidity
4596;DHT22;2310;49.978;8.742;2023-09-19T00:02:09;18.70;99.90
4596;DHT22;2310;49.978;8.742;2023-09-19T00:06:12;18.60;99.90
4596;DHT22;2310;49.978;8.742;2023-09-19T00:10:15;18.60;99.90
4596;DHT22;2310;49.978;8.742;2023-09-19T00:14:18;18.60;99.90
4596;DHT22;2310;49.978;8.742;2023-09-19T00:18:19;18.40;99.90
4596;DHT22;2310;49.978;8.742;2023-09-19T00:22:26;18.50;99.90
4596;DHT22;2310;49.978;8.742;2023-09-19T00:26:27;18.40;99.90
4596;DHT22;2310;49.978;8.742;2023-09-19T00:30:30;18.60;99.90
4596;DHT22;2310;49.978;8.742;2023-09-19T00:34:32;18.60;99.90
4596;DHT22;2310;49.978;8.742;2023-09-19T00:38:35;18.80;99.90
4596;DHT22;2310;49.978;8.742;2023-09-19T00:42:37;18.90;99.90
4596;DHT22;2310;49.978;8.742;2023-09-19T00:46:39;18.90;99.90
4596;DHT22;2310;49.978;8.742;2023-09-19T00:50:42;18.80;99.90
4596;DHT22;2310;49.978;8.742;2023-09-19T00:54:46;19.00;99.90
4596;DHT22;2310;49.978;8.742;2023-09-19T00:58:48;19.20;99.90
4596;DHT22;2310;49.978;8.742;2023-09-19T01:02:49;19.20;99.90
4596;DHT22;2310;49.978;8.742;2023-09-19T01:06:53;19.30;99.90
4596;DHT22;2310;49.978;8.742;2023-09-19T01:10:59;19.10;99.90
4596;DHT22;2310;49.978;8.742;2023-09-19T01:15:04;18.90;99.90
4596;DHT22;2310;49.978;8.742;2023-09-19T01:20:11;18.80;99.90
4596;DHT22;2310;49.978;8.742;2023-09-19T01:28:06;18.90;99.90
4596;DHT22;2310;49.978;8.742;2023-09-19T01:32:04;19.10;99.90
4596;DHT22;2310;49.978;8.742;2023-09-19T01:36:06;18.90;99.90
4596;DHT22;2310;49.978;8.742;2023-09-19T01:40:12;18.80;99.90
4596;DHT22;2310;49.978;8.742;2023-09-19T01:44:24;18.80;99.90
4596;DHT22;2310;49.978;8.742;2023-09-19T01:48:46;18.80;99.90
4596;DHT22;2310;49.978;8.742;2023-09-19T01:53:07;19.00;99.90
4596;DHT22;2310;49.978;8.742;2023-09-19T01:57:09;18.70;99.90
4596;DHT22;2310;49.978;8.742;2023-09-19T02:01:13;18.80;99.90
4596;DHT22;2310;49.978;8.742;2023-09-19T02:05:24;18.60;99.90
4596;DHT22;2310;49.978;8.742;2023-09-19T02:09:26;18.80;99.90
4596;DHT22;2310;49.978;8.742;2023-09-19T02:13:28;18.90;99.90
4596;DHT22;2310;49.978;8.742;2023-09-19T02:17:32;19.10;99.90
4596;DHT22;2310;49.978;8.742;2023-09-19T02:21:34;19.00;99.90
4596;DHT22;2310;49.978;8.742;2023-09-19T02:25:35;19.10;99.90
4596;DHT22;2310;49.978;8.742;2023-09-19T02:29:36;19.10;99.90
4596;DHT22;2310;49.978;8.742;2023-09-19T02:33:38;18.90;99.90
4596;DHT22;2310;49.978;8.742;2023-09-19T02:37:40;18.80;99.90
4596;DHT22;2310;49.978;8.742;2023-09-19T02:41:41;18.90;99.90
4596;DHT22;2310;49.978;8.742;2023-09-19T02:45:43;18.80;99.90
4596;DHT22;2310;49.978;8.742;2023-09-19T02:49:44;18.80;99.90
4596;DHT22;2310;49.978;8.742;2023-09-19T02:53:45;18.80;99.90
4596;DHT22;2310;49.978;8.742;2023-09-19T02:57:53;18.90;99.90
4596;DHT22;2310;49.978;8.742;2023-09-19T03:01:57;19.00;99.90
4596;DHT22;2310;49.978;8.742;2023-09-19T03:05:59;19.00;99.90
4596;DHT22;2310;49.978;8.742;2023-09-19T03:10:03;19.00;99.90
4596;DHT22;2310;49.978;8.742;2023-09-19T03:14:06;18.80;99.90
4596;DHT22;2310;49.978;8.742;2023-09-19T03:18:07;18.80;99.90
4596;DHT22;2310;49.978;8.742;2023-09-19T03:22:09;18.70;99.90
4596;DHT22;2310;49.978;8.742;2023-09-19T03:26:14;18.70;99.90
4596;DHT22;2310;49.978;8.742;2023-09-19T03:30:14;18.60;99.90
4596;DHT22;2310;49.978;8.742;2023-09-19T03:34:16;18.40;99.90
4596;DHT22;2310;49.978;8.742;2023-09-19T03:38:18;18.50;99.90
4596;DHT22;2310;49.978;8.742;2023-09-19T03:42:19;18.50;99.90
4596;DHT22;2310;49.978;8.742;2023-09-19T03:46:22;18.40;99.90
4596;DHT22;2310;49.978;8.742;2023-09-19T03:50:24;18.40;99.90
4596;DHT22;2310;49.978;8.742;2023-09-19T03:54:25;18.40;99.90
4596;DHT22;2310;49.978;8.742;2023-09-19T03:58:26;18.40;99.90
4596;DHT22;2310;49.978;8.742;2023-09-19T04:02:28;18.30;99.90
4596;DHT22;2310;49.978;8.742;2023-09-19T04:06:31;18.10;99.90
4596;DHT22;2310;49.978;8.742;2023-09-19T04:10:32;18.20;99.90
4596;DHT22;2310;49.978;8.742;2023-09-19T04:14:34;18.30;99.90
4596;DHT22;2310;49.978;8.742;2023-09-19T04:18:35;18.10;99.90
4596;DHT22;2310;49.978;8.742;2023-09-19T04:22:39;18.00;99.90
4596;DHT22;2310;49.978;8.742;2023-09-19T04:26:43;17.90;99.90
4596;DHT22;2310;49.978;8.742;2023-09-19T04:30:44;17.90;99.90
4596;DHT22;2310;49.978;8.742;2023-09-19T04:34:46;18.10;99.90
4596;DHT22;2310;49.978;8.742;2023-09-19T04:38:49;18.20;99.90
4596;DHT22;2310;49.978;8.742;2023-09-19T04:42:54;18.10;99.90
4596;DHT22;2310;49.978;8.742;2023-09-19T04:46:58;18.20;99.90
4596;DHT22;2310;49.978;8.742;2023-09-19T04:51:01;18.00;99.90
4596;DHT22;2310;49.978;8.742;2023-09-19T04:55:02;18.00;99.90
4596;DHT22;2310;49.978;8.742;2023-09-19T04:59:04;17.80;99.90
4596;DHT22;2310;49.978;8.742;2023-09-19T05:03:06;17.90;99.90
4596;DHT22;2310;49.978;8.742;2023-09-19T05:07:09;17.80;99.90
4596;DHT22;2310;49.978;8.742;2023-09-19T05:11:11;17.80;99.90
4596;DHT22;2310;49.978;8.742;2023-09-19T05:15:13;17.70;99.90
4596;DHT22;2310;49.978;8.742;2023-09-19T05:19:21;17.70;99.90
4596;DHT22;2310;49.978;8.742;2023-09-19T05:23:22;17.70;99.90
4596;DHT22;2310;49.978;8.742;2023-09-19T05:27:24;17.50;99.90
4596;DHT22;2310;49.978;8.742;2023-09-19T05:31:25;17.80;99.90
4596;DHT22;2310;49.978;8.742;2023-09-19T05:35:26;17.90;99.90
4596;DHT22;2310;49.978;8.742;2023-09-19T05:39:28;18.00;99.90
4596;DHT22;2310;49.978;8.742;2023-09-19T05:43:32;17.90;99.90
4596;DHT22;2310;49.978;8.742;2023-09-19T05:47:33;17.90;99.90
4596;DHT22;2310;49.978;8.742;2023-09-19T05:51:35;17.80;99.90
4596;DHT22;2310;49.978;8.742;2023-09-19T05:55:37;17.60;99.90
4596;DHT22;2310;49.978;8.742;2023-09-19T05:59:38;17.70;99.90
4596;DHT22;2310;49.978;8.742;2023-09-19T06:03:41;17.80;99.90
4596;DHT22;2310;49.978;8.742;2023-09-19T06:07:42;17.80;99.90
4596;DHT22;2310;49.978;8.742;2023-09-19T06:11:44;17.60;99.90
4596;DHT22;2310;49.978;8.742;2023-09-19T06:15:46;17.80;99.90
4596;DHT22;2310;49.978;8.742;2023-09-19T06:19:49;18.00;99.90
4596;DHT22;2310;49.978;8.742;2023-09-19T06:23:52;18.00;99.90
4596;DHT22;2310;49.978;8.742;2023-09-19T06:27:53;18.00;99.90
4596;DHT22;2310;49.978;8.742;2023-09-19T06:31:56;18.00;99.90
4596;DHT22;2310;49.978;8.742;2023-09-19T06:35:57;18.20;99.90
4596;DHT22;2310;49.978;8.742;2023-09-19T06:40:00;17.90;99.90
4596;DHT22;2310;49.978;8.742;2023-09-19T06:44:02;18.00;99.90
4596;DHT22;2310;49.978;8.742;2023-09-19T06:48:04;18.20;99.90
4596;DHT22;2310;49.978;8.742;2023-09-19T06:52:06;18.60;99.90
4596;DHT22;2310;49.978;8.742;2023-09-19T06:56:08;18.50;99.90
4596;DHT22;2310;49.978;8.742;2023-09-19T07:00:10;18.50;99.90
4596;DHT22;2310;49.978;8.742;2023-09-19T07:04:14;18.70;99.90
4596;DHT22;2310;49.978;8.742;2023-09-19T07:08:15;18.80;99.90
4596;DHT22;2310;49.978;8.742;2023-09-19T07:12:17;18.90;99.90
4596;DHT22;2310;49.978;8.742;2023-09-19T07:16:19;18.90;99.90
4596;DHT22;2310;49.978;8.742;2023-09-19T07:20:24;19.10;99.90
4596;DHT22;2310;49.978;8.742;2023-09-19T07:24:27;19.20;99.90
4596;DHT22;2310;49.978;8.742;2023-09-19T07:28:30;19.10;99.90
4596;DHT22;2310;49.978;8.742;2023-09-19T07:32:31;18.90;99.90
4596;DHT22;2310;49.978;8.742;2023-09-19T07:36:34;18.90;99.90
4596;DHT22;2310;49.978;8.742;2023-09-19T07:40:36;19.20;99.90
4596;DHT22;2310;49.978;8.742;2023-09-19T07:44:37;19.40;99.90
4596;DHT22;2310;49.978;8.742;2023-09-19T07:48:39;19.30;99.90
4596;DHT22;2310;49.978;8.742;2023-09-19T07:52:42;19.30;99.90
4596;DHT22;2310;49.978;8.742;2023-09-19T07:56:44;19.30;99.90
4596;DHT22;2310;49.978;8.742;2023-09-19T08:00:47;19.80;99.90
4596;DHT22;2310;49.978;8.742;2023-09-19T08:04:48;19.70;99.90
4596;DHT22;2310;49.978;8.742;2023-09-19T08:08:51;19.60;99.90
4596;DHT22;2310;49.978;8.742;2023-09-19T08:12:54;19.80;99.90
4596;DHT22;2310;49.978;8.742;2023-09-19T08:16:58;19.80;99.90
4596;DHT22;2310;49.978;8.742;2023-09-19T08:21:00;19.70;99.90
4596;DHT22;2310;49.978;8.742;2023-09-19T08:25:02;19.70;99.90
4596;DHT22;2310;49.978;8.742;2023-09-19T08:29:04;19.90;99.90
4596;DHT22;2310;49.978;8.742;2023-09-19T08:33:07;20.20;99.90
4596;DHT22;2310;49.978;8.742;2023-09-19T08:37:09;20.50;99.90
4596;DHT22;2310;49.978;8.742;2023-09-19T08:41:11;20.50;99.90
4596;DHT22;2310;49.978;8.742;2023-09-19T08:45:13;21.00;99.90
4596;DHT22;2310;49.978;8.742;2023-09-19T08:54:03;21.10;97.50
4596;DHT22;2310;49.978;8.742;2023-09-19T08:58:09;21.40;92.00
4596;DHT22;2310;49.978;8.742;2023-09-19T09:02:12;21.30;87.70
4596;DHT22;2310;49.978;8.742;2023-09-19T09:06:14;21.50;85.30
4596;DHT22;2310;49.978;8.742;2023-09-19T09:10:20;21.80;85.30
4596;DHT22;2310;49.978;8.742;2023-09-19T09:14:25;21.60;83.20
4596;DHT22;2310;49.978;8.742;2023-09-19T09:18:28;21.80;85.70
4596;DHT22;2310;49.978;8.742;2023-09-19T09:22:30;21.50;78.10
4596;DHT22;2310;49.978;8.742;2023-09-19T09:30:42;21.50;78.80
4596;DHT22;2310;49.978;8.742;2023-09-19T09:34:43;21.60;89.00
4596;DHT22;2310;49.978;8.742;2023-09-19T09:38:46;21.70;85.80
4596;DHT22;2310;49.978;8.742;2023-09-19T09:42:49;21.90;76.40
4596;DHT22;2310;49.978;8.742;2023-09-19T09:46:52;21.70;76.40
4596;DHT22;2310;49.978;8.742;2023-09-19T09:50:56;22.10;76.70
4596;DHT22;2310;49.978;8.742;2023-09-19T09:55:01;22.40;71.20
4596;DHT22;2310;49.978;8.742;2023-09-19T09:59:05;22.60;73.00
4596;DHT22;2310;49.978;8.742;2023-09-19T10:03:19;22.50;70.70
4596;DHT22;2310;49.978;8.742;2023-09-19T10:07:23;22.70;68.10
4596;DHT22;2310;49.978;8.742;2023-09-19T10:11:18;22.90;68.10
4596;DHT22;2310;49.978;8.742;2023-09-19T10:15:21;22.40;69.00
4596;DHT22;2310;49.978;8.742;2023-09-19T10:19:33;22.60;75.70
4596;DHT22;2310;49.978;8.742;2023-09-19T10:23:36;22.50;73.90
4596;DHT22;2310;49.978;8.742;2023-09-19T10:27:38;22.70;77.20
4596;DHT22;2310;49.978;8.742;2023-09-19T10:31:42;23.20;75.10
4596;DHT22;2310;49.978;8.742;2023-09-19T10:35:47;23.50;68.20
4596;DHT22;2310;49.978;8.742;2023-09-19T10:39:49;23.00;69.60
4596;DHT22;2310;49.978;8.742;2023-09-19T10:43:53;22.90;71.50
4596;DHT22;2310;49.978;8.742;2023-09-19T10:47:56;22.80;68.40
4596;DHT22;2310;49.978;8.742;2023-09-19T10:51:59;23.10;67.60
4596;DHT22;2310;49.978;8.742;2023-09-19T10:56:01;23.20;59.10
4596;DHT22;2310;49.978;8.742;2023-09-19T11:00:06;23.90;60.50
4596;DHT22;2310;49.978;8.742;2023-09-19T11:04:29;23.70;56.30
4596;DHT22;2310;49.978;8.742;2023-09-19T11:12:55;24.60;55.40
4596;DHT22;2310;49.978;8.742;2023-09-19T11:25:41;24.20;54.60
4596;DHT22;2310;49.978;8.742;2023-09-19T11:29:45;24.50;54.70
4596;DHT22;2310;49.978;8.742;2023-09-19T11:33:47;24.70;51.40
4596;DHT22;2310;49.978;8.742;2023-09-19T11:41:54;24.70;52.50
4596;DHT22;2310;49.978;8.742;2023-09-19T11:50:02;23.80;52.30
4596;DHT22;2310;49.978;8.742;2023-09-19T11:54:10;23.60;52.70
4596;DHT22;2310;49.978;8.742;2023-09-19T11:58:10;23.80;53.50
4596;DHT22;2310;49.978;8.742;2023-09-19T12:02:19;23.70;52.80
4596;DHT22;2310;49.978;8.742;2023-09-19T12:06:22;23.40;53.10
4596;DHT22;2310;49.978;8.742;2023-09-19T12:10:24;23.40;53.80
4596;DHT22;2310;49.978;8.742;2023-09-19T12:14:26;24.20;53.20
4596;DHT22;2310;49.978;8.742;2023-09-19T12:18:29;23.80;53.00
4596;DHT22;2310;49.978;8.742;2023-09-19T12:22:39;24.10;52.70
4596;DHT22;2310;49.978;8.742;2023-09-19T12:26:45;23.70;52.00
4596;DHT22;2310;49.978;8.742;2023-09-19T12:30:44;23.60;51.40
4596;DHT22;2310;49.978;8.742;2023-09-19T12:34:53;23.80;53.30
4596;DHT22;2310;49.978;8.742;2023-09-19T12:38:56;24.20;52.60
4596;DHT22;2310;49.978;8.742;2023-09-19T12:43:00;24.10;51.80
4596;DHT22;2310;49.978;8.742;2023-09-19T12:47:13;23.90;52.50
4596;DHT22;2310;49.978;8.742;2023-09-19T12:51:12;23.90;52.70
4596;DHT22;2310;49.978;8.742;2023-09-19T12:59:29;24.70;51.20
4596;DHT22;2310;49.978;8.742;2023-09-19T13:03:31;24.20;51.20
4596;DHT22;2310;49.978;8.742;2023-09-19T13:07:43;24.60;50.10
4596;DHT22;2310;49.978;8.742;2023-09-19T13:11:45;24.20;49.90
4596;DHT22;2310;49.978;8.742;2023-09-19T13:15:52;24.40;49.90
4596;DHT22;2310;49.978;8.742;2023-09-19T13:19:54;24.70;49.90
4596;DHT22;2310;49.978;8.742;2023-09-19T13:24:01;24.60;48.60
4596;DHT22;2310;49.978;8.742;2023-09-19T13:28:00;24.30;49.10
4596;DHT22;2310;49.978;8.742;2023-09-19T13:32:04;24.40;49.50
4596;DHT22;2310;49.978;8.742;2023-09-19T13:36:05;24.70;49.90
4596;DHT22;2310;49.978;8.742;2023-09-19T13:40:11;24.70;50.20
4596;DHT22;2310;49.978;8.742;2023-09-19T13:44:13;24.40;49.90
4596;DHT22;2310;49.978;8.742;2023-09-19T13:48:15;24.10;50.30
4596;DHT22;2310;49.978;8.742;2023-09-19T13:52:16;24.20;49.70
4596;DHT22;2310;49.978;8.742;2023-09-19T13:56:18;24.00;49.70
4596;DHT22;2310;49.978;8.742;2023-09-19T14:00:20;23.80;50.80
4596;DHT22;2310;49.978;8.742;2023-09-19T14:04:21;24.00;50.80
4596;DHT22;2310;49.978;8.742;2023-09-19T14:08:23;23.90;50.40
4596;DHT22;2310;49.978;8.742;2023-09-19T14:12:24;23.70;50.80
4596;DHT22;2310;49.978;8.742;2023-09-19T14:16:26;23.50;50.70
4596;DHT22;2310;49.978;8.742;2023-09-19T14:20:29;23.70;52.10
4596;DHT22;2310;49.978;8.742;2023-09-19T14:24:31;23.30;51.90
4596;DHT22;2310;49.978;8.742;2023-09-19T14:28:33;23.60;52.80
4596;DHT22;2310;49.978;8.742;2023-09-19T14:32:37;23.50;53.20
4596;DHT22;2310;49.978;8.742;2023-09-19T14:36:40;23.20;53.70
4596;DHT22;2310;49.978;8.742;2023-09-19T14:40:41;23.20;54.60
4596;DHT22;2310;49.978;8.742;2023-09-19T14:44:43;23.00;54.80
4596;DHT22;2310;49.978;8.742;2023-09-19T14:48:45;23.20;55.30
4596;DHT22;2310;49.978;8.742;2023-09-19T14:52:49;23.20;55.10
4596;DHT22;2310;49.978;8.742;2023-09-19T14:56:53;23.40;55.80
4596;DHT22;2310;49.978;8.742;2023-09-19T15:01:06;23.20;56.00
4596;DHT22;2310;49.978;8.742;2023-09-19T15:05:08;23.50;56.50
4596;DHT22;2310;49.978;8.742;2023-09-19T15:09:10;23.50;56.60
4596;DHT22;2310;49.978;8.742;2023-09-19T15:13:12;23.40;55.60
4596;DHT22;2310;49.978;8.742;2023-09-19T15:17:13;23.40;56.90
4596;DHT22;2310;49.978;8.742;2023-09-19T15:21:16;23.60;56.40
4596;DHT22;2310;49.978;8.742;2023-09-19T15:25:18;23.60;57.20
4596;DHT22;2310;49.978;8.742;2023-09-19T15:29:20;23.70;56.50
4596;DHT22;2310;49.978;8.742;2023-09-19T15:33:21;23.70;56.70
4596;DHT22;2310;49.978;8.742;2023-09-19T15:37:23;23.70;58.50
4596;DHT22;2310;49.978;8.742;2023-09-19T15:45:31;23.30;58.90
4596;DHT22;2310;49.978;8.742;2023-09-19T15:49:33;23.30;58.70
4596;DHT22;2310;49.978;8.742;2023-09-19T15:53:43;23.10;59.00
4596;DHT22;2310;49.978;8.742;2023-09-19T15:57:47;23.10;60.90
4596;DHT22;2310;49.978;8.742;2023-09-19T16:01:49;23.10;61.30
4596;DHT22;2310;49.978;8.742;2023-09-19T16:05:52;22.90;61.60
4596;DHT22;2310;49.978;8.742;2023-09-19T16:09:53;23.00;62.60
4596;DHT22;2310;49.978;8.742;2023-09-19T16:13:55;23.00;63.50
4596;DHT22;2310;49.978;8.742;2023-09-19T16:17:57;23.10;63.40
4596;DHT22;2310;49.978;8.742;2023-09-19T16:22:00;22.70;63.90
4596;DHT22;2310;49.978;8.742;2023-09-19T16:26:07;22.50;64.70
4596;DHT22;2310;49.978;8.742;2023-09-19T16:30:09;22.70;66.10
4596;DHT22;2310;49.978;8.742;2023-09-19T16:34:11;22.90;64.60
4596;DHT22;2310;49.978;8.742;2023-09-19T16:38:13;22.90;66.10
4596;DHT22;2310;49.978;8.742;2023-09-19T16:42:15;22.90;66.20
4596;DHT22;2310;49.978;8.742;2023-09-19T16:46:18;23.00;66.80
4596;DHT22;2310;49.978;8.742;2023-09-19T16:50:20;23.00;67.70
4596;DHT22;2310;49.978;8.742;2023-09-19T16:54:21;23.10;68.40
4596;DHT22;2310;49.978;8.742;2023-09-19T16:58:24;23.00;68.90
4596;DHT22;2310;49.978;8.742;2023-09-19T17:02:26;23.00;71.50
4596;DHT22;2310;49.978;8.742;2023-09-19T17:06:29;23.00;70.50
4596;DHT22;2310;49.978;8.742;2023-09-19T17:10:31;22.90;71.70
4596;DHT22;2310;49.978;8.742;2023-09-19T17:14:35;22.90;74.90
4596;DHT22;2310;49.978;8.742;2023-09-19T17:18:38;22.90;73.70
4596;DHT22;2310;49.978;8.742;2023-09-19T17:22:41;22.90;76.40
4596;DHT22;2310;49.978;8.742;2023-09-19T17:26:43;22.80;78.10
4596;DHT22;2310;49.978;8.742;2023-09-19T17:30:45;22.60;77.10
4596;DHT22;2310;49.978;8.742;2023-09-19T17:34:47;22.30;80.50
4596;DHT22;2310;49.978;8.742;2023-09-19T17:38:53;22.20;84.50
4596;DHT22;2310;49.978;8.742;2023-09-19T17:42:54;22.40;85.80
4596;DHT22;2310;49.978;8.742;2023-09-19T17:46:59;22.40;87.00
4596;DHT22;2310;49.978;8.742;2023-09-19T17:51:01;22.50;85.80
4596;DHT22;2310;49.978;8.742;2023-09-19T17:55:05;22.50;88.30
4596;DHT22;2310;49.978;8.742;2023-09-19T17:59:07;22.00;90.90
4596;DHT22;2310;49.978;8.742;2023-09-19T18:03:09;21.90;90.60
4596;DHT22;2310;49.978;8.742;2023-09-19T18:07:10;21.70;90.10
4596;DHT22;2310;49.978;8.742;2023-09-19T18:11:14;21.40;92.20
4596;DHT22;2310;49.978;8.742;2023-09-19T18:15:16;21.20;93.80
4596;DHT22;2310;49.978;8.742;2023-09-19T18:19:18;21.00;94.70
4596;DHT22;2310;49.978;8.742;2023-09-19T18:23:21;21.30;93.20
4596;DHT22;2310;49.978;8.742;2023-09-19T18:27:22;21.20;93.80
4596;DHT22;2310;49.978;8.742;2023-09-19T18:31:24;21.20;93.50
4596;DHT22;2310;49.978;8.742;2023-09-19T18:35:26;21.30;94.00
4596;DHT22;2310;49.978;8.742;2023-09-19T18:39:32;21.20;95.10
4596;DHT22;2310;49.978;8.742;2023-09-19T18:43:37;21.20;95.20
4596;DHT22;2310;49.978;8.742;2023-09-19T18:47:39;21.10;94.30
4596;DHT22;2310;49.978;8.742;2023-09-19T18:51:41;21.10;96.10
4596;DHT22;2310;49.978;8.742;2023-09-19T18:55:44;21.00;98.40
4596;DHT22;2310;49.978;8.742;2023-09-19T18:59:48;20.90;97.20
4596;DHT22;2310;49.978;8.742;2023-09-19T19:03:51;20.90;98.80
4596;DHT22;2310;49.978;8.742;2023-09-19T19:07:53;20.90;98.50
4596;DHT22;2310;49.978;8.742;2023-09-19T19:11:56;21.00;99.10
4596;DHT22;2310;49.978;8.742;2023-09-19T19:15:58;20.80;99.90
4596;DHT22;2310;49.978;8.742;2023-09-19T19:20:00;20.70;99.90
4596;DHT22;2310;49.978;8.742;2023-09-19T19:24:03;20.70;99.90
4596;DHT22;2310;49.978;8.742;2023-09-19T19:28:05;20.50;99.90
4596;DHT22;2310;49.978;8.742;2023-09-19T19:32:07;20.60;99.90
4596;DHT22;2310;49.978;8.742;2023-09-19T19:36:10;20.40;99.90
4596;DHT22;2310;49.978;8.742;2023-09-19T19:40:12;20.50;99.90
4596;DHT22;2310;49.978;8.742;2023-09-19T19:44:18;20.20;99.90
4596;DHT22;2310;49.978;8.742;2023-09-19T19:48:21;20.10;99.90
4596;DHT22;2310;49.978;8.742;2023-09-19T19:52:23;20.00;99.90
4596;DHT22;2310;49.978;8.742;2023-09-19T19:56:25;20.20;99.90
4596;DHT22;2310;49.978;8.742;2023-09-19T20:00:27;20.10;99.90
4596;DHT22;2310;49.978;8.742;2023-09-19T20:04:31;20.10;99.90
4596;DHT22;2310;49.978;8.742;2023-09-19T20:08:32;20.10;99.90
4596;DHT22;2310;49.978;8.742;2023-09-19T20:12:34;20.00;99.90
4596;DHT22;2310;49.978;8.742;2023-09-19T20:16:37;20.00;99.90
4596;DHT22;2310;49.978;8.742;2023-09-19T20:20:39;20.10;99.90
4596;DHT22;2310;49.978;8.742;2023-09-19T20:24:40;19.90;99.90
4596;DHT22;2310;49.978;8.742;2023-09-19T20:28:45;20.00;99.90
4596;DHT22;2310;49.978;8.742;2023-09-19T20:32:47;20.10;99.90
4596;DHT22;2310;49.978;8.742;2023-09-19T20:36:48;20.00;99.90
4596;DHT22;2310;49.978;8.742;2023-09-19T20:40:50;20.10;99.90
4596;DHT22;2310;49.978;8.742;2023-09-19T20:44:51;20.10;99.90
4596;DHT22;2310;49.978;8.742;2023-09-19T20:48:54;20.10;99.90
4596;DHT22;2310;49.978;8.742;2023-09-19T20:52:56;20.00;99.90
4596;DHT22;2310;49.978;8.742;2023-09-19T20:56:57;19.90;99.90
4596;DHT22;2310;49.978;8.742;2023-09-19T21:01:00;19.80;99.90
4596;DHT22;2310;49.978;8.742;2023-09-19T21:05:03;19.90;99.90
4596;DHT22;2310;49.978;8.742;2023-09-19T21:09:04;20.00;99.90
4596;DHT22;2310;49.978;8.742;2023-09-19T21:13:06;19.90;99.90
4596;DHT22;2310;49.978;8.742;2023-09-19T21:17:08;19.90;99.90
4596;DHT22;2310;49.978;8.742;2023-09-19T21:21:09;20.00;99.90
4596;DHT22;2310;49.978;8.742;2023-09-19T21:25:13;19.80;99.90
4596;DHT22;2310;49.978;8.742;2023-09-19T21:29:15;19.90;99.90
4596;DHT22;2310;49.978;8.742;2023-09-19T21:33:16;19.90;99.90
4596;DHT22;2310;49.978;8.742;2023-09-19T21:37:19;19.80;99.90
4596;DHT22;2310;49.978;8.742;2023-09-19T21:41:20;19.80;99.90
4596;DHT22;2310;49.978;8.742;2023-09-19T21:45:22;19.70;99.90
4596;DHT22;2310;49.978;8.742;2023-09-19T21:49:23;19.50;99.90
4596;DHT22;2310;49.978;8.742;2023-09-19T21:53:24;19.40;99.90
4596;DHT22;2310;49.978;8.742;2023-09-19T21:57:26;19.70;99.90
4596;DHT22;2310;49.978;8.742;2023-09-19T22:01:27;19.50;99.90
4596;DHT22;2310;49.978;8.742;2023-09-19T22:05:29;19.50;99.90
4596;DHT22;2310;49.978;8.742;2023-09-19T22:09:31;19.60;99.90
4596;DHT22;2310;49.978;8.742;2023-09-19T22:13:33;19.50;99.90
4596;DHT22;2310;49.978;8.742;2023-09-19T22:17:34;19.20;99.90
4596;DHT22;2310;49.978;8.742;2023-09-19T22:21:36;19.10;99.90
4596;DHT22;2310;49.978;8.742;2023-09-19T22:25:40;19.30;99.90
4596;DHT22;2310;49.978;8.742;2023-09-19T22:29:42;19.50;99.90
4596;DHT22;2310;49.978;8.742;2023-09-19T22:33:45;19.40;99.90
4596;DHT22;2310;49.978;8.742;2023-09-19T22:37:48;19.20;99.90
4596;DHT22;2310;49.978;8.742;2023-09-19T22:41:52;18.90;99.90
4596;DHT22;2310;49.978;8.742;2023-09-19T22:45:54;18.90;99.90
4596;DHT22;2310;49.978;8.742;2023-09-19T22:49:56;18.60;99.90
4596;DHT22;2310;49.978;8.742;2023-09-19T22:53:58;18.50;99.90
4596;DHT22;2310;49.978;8.742;2023-09-19T22:58:00;18.70;99.90
4596;DHT22;2310;49.978;8.742;2023-09-19T23:02:03;19.10;99.90
4596;DHT22;2310;49.978;8.742;2023-09-19T23:06:06;18.90;99.90
4596;DHT22;2310;49.978;8.742;2023-09-19T23:10:08;19.10;99.90
4596;DHT22;2310;49.978;8.742;2023-09-19T23:14:11;19.00;99.90
4596;DHT22;2310;49.978;8.742;2023-09-19T23:18:14;19.20;99.90
4596;DHT22;2310;49.978;8.742;2023-09-19T23:22:16;19.40;99.90
4596;DHT22;2310;49.978;8.742;2023-09-19T23:26:24;19.30;99.90
4596;DHT22;2310;49.978;8.742;2023-09-19T23:30:26;19.30;99.90
4596;DHT22;2310;49.978;8.742;2023-09-19T23:34:29;19.40;99.90
4596;DHT22;2310;49.978;8.742;2023-09-19T23:38:31;19.60;99.90
4596;DHT22;2310;49.978;8.742;2023-09-19T23:42:33;19.60;99.90
4596;DHT22;2310;49.978;8.742;2023-09-19T23:46:36;19.60;99.90
4596;DHT22;2310;49.978;8.742;2023-09-19T23:50:39;19.20;99.90
4596;DHT22;2310;49.978;8.742;2023-09-19T23:54:42;19.00;99.90
4596;DHT22;2310;49.978;8.742;2023-09-19T23:58:45;19.00;99.90
